createdAt,value
2024-02-18T00:00:00.889Z,100.00
2024-02-18T00:03:03.322Z,100.00
2024-02-18T00:06:05.993Z,100.00
2024-02-18T00:09:08.543Z,100.00
2024-02-18T00:12:10.988Z,100.00
2024-02-18T00:15:13.405Z,100.00
2024-02-18T00:18:16.499Z,100.00
2024-02-18T00:21:19.330Z,100.00
2024-02-18T00:24:22.206Z,100.00
2024-02-18T00:27:24.558Z,100.00
2024-02-18T00:30:27.883Z,100.00
2024-02-18T00:33:30.461Z,100.00
2024-02-18T00:36:33.218Z,99.51
2024-02-18T00:39:35.606Z,99.28
2024-02-18T00:42:38.263Z,98.77
2024-02-18T00:45:40.546Z,98.73
2024-02-18T00:48:43.361Z,97.66
2024-02-18T00:51:45.963Z,97.62
2024-02-18T00:54:48.616Z,96.85
2024-02-18T00:57:50.874Z,96.59
2024-02-18T01:00:53.462Z,96.80
2024-02-18T01:03:55.775Z,96.37
2024-02-18T01:06:58.402Z,95.73
2024-02-18T01:10:00.871Z,95.68
2024-02-18T01:13:03.645Z,95.62
2024-02-18T01:16:06.261Z,95.69
2024-02-18T01:19:08.995Z,96.31
2024-02-18T01:22:11.329Z,96.09
2024-02-18T01:25:13.986Z,96.04
2024-02-18T01:28:16.298Z,95.45
2024-02-18T01:31:18.844Z,95.81
2024-02-18T01:34:21.542Z,95.84
2024-02-18T01:37:24.391Z,96.34
2024-02-18T01:40:26.734Z,97.11
2024-02-18T01:43:29.376Z,96.74
2024-02-18T01:46:31.661Z,96.91
2024-02-18T01:49:34.924Z,96.57
2024-02-18T01:52:39.453Z,96.79
2024-02-18T01:55:43.877Z,98.46
2024-02-18T01:58:46.500Z,99.39
2024-02-18T02:01:49.480Z,100.00
2024-02-18T02:04:52.879Z,100.00
2024-02-18T02:07:55.626Z,100.00
2024-02-18T02:10:59.752Z,100.00
2024-02-18T02:14:03.209Z,100.00
2024-02-18T02:17:06.397Z,100.00
2024-02-18T02:20:12.701Z,100.00
2024-02-18T02:23:15.305Z,100.00
2024-02-18T02:26:21.403Z,100.00
2024-02-18T02:29:24.634Z,99.83
2024-02-18T02:32:26.968Z,98.13
2024-02-18T02:35:29.765Z,97.77
2024-02-18T02:38:33.672Z,96.65
2024-02-18T02:41:36.230Z,95.60
2024-02-18T02:44:38.501Z,94.50
2024-02-18T02:47:41.075Z,94.33
2024-02-18T02:50:43.322Z,93.39
2024-02-18T02:53:46.916Z,92.05
2024-02-18T02:56:49.066Z,90.97
2024-02-18T02:59:51.653Z,91.07
2024-02-18T03:02:53.890Z,88.93
2024-02-18T03:05:56.448Z,88.29
2024-02-18T03:08:58.695Z,88.65
2024-02-18T03:12:01.264Z,87.68
2024-02-18T03:15:03.901Z,87.50
2024-02-18T03:18:06.924Z,87.97
2024-02-18T03:21:11.400Z,88.24
2024-02-18T03:24:14.269Z,88.24
2024-02-18T03:27:16.704Z,88.87
2024-02-18T03:30:19.504Z,88.60
2024-02-18T03:33:21.899Z,88.55
2024-02-18T03:36:24.690Z,88.12
2024-02-18T03:39:27.045Z,88.88
2024-02-18T03:42:29.715Z,86.91
2024-02-18T03:45:32.139Z,87.66
2024-02-18T03:48:34.684Z,87.77
2024-02-18T03:51:37.028Z,87.89
2024-02-18T03:54:40.679Z,87.87
2024-02-18T03:57:43.806Z,87.75
2024-02-18T04:00:49.547Z,89.49
2024-02-18T04:03:52.160Z,92.08
2024-02-18T04:06:54.727Z,94.66
2024-02-18T04:09:57.255Z,96.66
2024-02-18T04:13:00.913Z,97.39
2024-02-18T04:16:04.384Z,98.54
2024-02-18T04:19:07.880Z,99.99
2024-02-18T04:22:10.681Z,100.00
2024-02-18T04:25:13.129Z,100.00
2024-02-18T04:28:15.666Z,100.00
2024-02-18T04:31:18.352Z,100.00
2024-02-18T04:34:21.032Z,100.00
2024-02-18T04:37:23.419Z,100.00
2024-02-18T04:40:26.904Z,100.00
2024-02-18T04:43:29.239Z,100.00
2024-02-18T04:46:31.914Z,100.00
2024-02-18T04:49:34.274Z,100.00
2024-02-18T04:52:39.082Z,100.00
2024-02-18T04:55:41.381Z,100.00
2024-02-18T04:58:44.004Z,100.00
2024-02-18T05:01:49.737Z,100.00
2024-02-18T05:04:52.760Z,100.00
2024-02-18T05:07:54.978Z,100.00
2024-02-18T05:10:58.500Z,100.00
2024-02-18T05:14:01.202Z,100.00
2024-02-18T05:17:04.797Z,97.79
2024-02-18T05:20:10.884Z,98.27
2024-02-18T05:23:13.810Z,99.25
2024-02-18T05:26:16.491Z,100.00
2024-02-18T05:29:19.146Z,100.00
2024-02-18T05:32:23.396Z,100.00
2024-02-18T05:35:26.275Z,100.00
2024-02-18T05:38:28.604Z,100.00
2024-02-18T05:41:31.127Z,100.00
2024-02-18T05:44:34.000Z,100.00
2024-02-18T05:47:36.592Z,100.00
2024-02-18T05:50:38.883Z,100.00
2024-02-18T05:53:41.420Z,100.00
2024-02-18T05:56:43.722Z,100.00
2024-02-18T05:59:46.428Z,100.00
2024-02-18T06:02:48.728Z,100.00
2024-02-18T06:05:51.816Z,100.00
2024-02-18T06:08:54.121Z,100.00
2024-02-18T06:11:56.718Z,100.00
2024-02-18T06:14:59.037Z,100.00
2024-02-18T06:18:01.824Z,100.00
2024-02-18T06:21:05.405Z,100.00
2024-02-18T06:24:07.936Z,100.00
2024-02-18T06:27:10.152Z,100.00
2024-02-18T06:30:13.541Z,100.00
2024-02-18T06:33:16.047Z,100.00
2024-02-18T06:36:18.645Z,100.00
2024-02-18T06:39:24.301Z,100.00
2024-02-18T06:42:28.369Z,100.00
2024-02-18T06:45:30.738Z,99.96
2024-02-18T06:48:33.577Z,98.30
2024-02-18T06:51:35.992Z,95.80
2024-02-18T06:54:38.606Z,95.44
2024-02-18T06:57:44.296Z,95.27
2024-02-18T07:00:47.124Z,95.61
2024-02-18T07:03:49.710Z,94.62
2024-02-18T07:06:52.321Z,95.18
2024-02-18T07:09:54.619Z,97.02
2024-02-18T07:12:57.404Z,97.40
2024-02-18T07:15:59.855Z,96.06
2024-02-18T07:19:02.581Z,95.86
2024-02-18T07:22:07.133Z,96.71
2024-02-18T07:25:11.171Z,96.64
2024-02-18T07:28:13.613Z,95.14
2024-02-18T07:31:18.212Z,91.51
2024-02-18T07:34:21.917Z,87.72
2024-02-18T07:37:24.760Z,83.55
2024-02-18T07:40:26.922Z,79.36
2024-02-18T07:43:29.668Z,78.11
2024-02-18T07:46:32.407Z,75.38
2024-02-18T07:49:34.968Z,74.09
2024-02-18T07:52:37.289Z,70.12
2024-02-18T07:55:40.183Z,71.11
2024-02-18T07:58:42.371Z,67.98
2024-02-18T08:01:46.565Z,65.77
2024-02-18T08:04:49.511Z,65.47
2024-02-18T08:07:51.875Z,64.19
2024-02-18T08:10:54.414Z,63.23
2024-02-18T08:13:56.738Z,61.89
2024-02-18T08:16:59.369Z,62.41
2024-02-18T08:20:01.825Z,60.77
2024-02-18T08:23:04.943Z,58.90
2024-02-18T08:26:08.937Z,59.91
2024-02-18T08:29:11.605Z,58.63
2024-02-18T08:32:13.787Z,56.61
2024-02-18T08:35:16.379Z,60.68
2024-02-18T08:38:18.693Z,62.01
2024-02-18T08:41:22.122Z,62.01
2024-02-18T08:44:24.467Z,63.50
2024-02-18T08:47:27.088Z,63.84
2024-02-18T08:50:31.592Z,64.46
2024-02-18T08:53:34.548Z,64.88
2024-02-18T08:56:36.774Z,65.53
2024-02-18T08:59:39.382Z,66.42
2024-02-18T09:02:41.643Z,65.10
2024-02-18T09:05:44.288Z,64.99
2024-02-18T09:08:46.607Z,65.21
2024-02-18T09:11:49.132Z,66.94
2024-02-18T09:14:51.489Z,64.49
2024-02-18T09:17:54.463Z,64.70
2024-02-18T09:20:57.190Z,65.07
2024-02-18T09:23:59.840Z,61.82
2024-02-18T09:27:02.077Z,61.44
2024-02-18T09:30:05.542Z,62.19
2024-02-18T09:33:08.732Z,63.48
2024-02-18T09:36:11.460Z,64.13
2024-02-18T09:39:13.778Z,62.67
2024-02-18T09:42:16.494Z,62.30
2024-02-18T09:45:27.271Z,62.87
2024-02-18T09:48:31.170Z,64.89
2024-02-18T09:51:35.329Z,64.75
2024-02-18T09:54:38.074Z,67.32
2024-02-18T09:57:40.446Z,68.58
2024-02-18T10:00:43.113Z,66.07
2024-02-18T10:03:46.125Z,68.22
2024-02-18T10:06:48.789Z,68.14
2024-02-18T10:09:52.345Z,67.32
2024-02-18T10:12:55.097Z,69.75
2024-02-18T10:16:00.274Z,69.58
2024-02-18T10:19:02.839Z,66.80
2024-02-18T10:22:07.204Z,67.52
2024-02-18T10:25:11.067Z,65.82
2024-02-18T10:28:16.684Z,68.42
2024-02-18T10:31:18.968Z,67.98
2024-02-18T10:34:21.996Z,66.57
2024-02-18T10:37:31.056Z,66.05
2024-02-18T10:40:39.962Z,65.78
2024-02-18T10:43:52.313Z,69.09
2024-02-18T10:46:56.472Z,70.14
2024-02-18T10:50:07.180Z,70.26
2024-02-18T10:53:26.613Z,70.55
2024-02-18T10:56:29.305Z,69.35
2024-02-18T10:59:42.412Z,68.82
2024-02-18T11:02:59.354Z,66.51
2024-02-18T11:06:02.894Z,69.24
2024-02-18T11:09:09.660Z,69.51
2024-02-18T11:12:14.807Z,70.13
2024-02-18T11:15:17.134Z,70.28
2024-02-18T11:18:21.851Z,73.61
2024-02-18T11:21:24.860Z,69.44
2024-02-18T11:24:28.377Z,68.26
2024-02-18T11:27:31.080Z,69.14
2024-02-18T11:30:33.964Z,66.19
2024-02-18T11:33:36.978Z,68.17
2024-02-18T11:36:39.615Z,65.65
2024-02-18T11:39:41.908Z,65.39
2024-02-18T11:42:46.018Z,67.16
2024-02-18T11:45:48.391Z,66.99
2024-02-18T11:48:52.123Z,67.15
2024-02-18T11:51:54.508Z,62.00
2024-02-18T11:54:57.181Z,60.09
2024-02-18T11:57:59.534Z,61.91
2024-02-18T12:01:04.922Z,61.52
2024-02-18T12:04:07.732Z,64.00
2024-02-18T12:07:11.284Z,64.38
2024-02-18T12:10:14.473Z,64.48
2024-02-18T12:13:16.876Z,65.13
2024-02-18T12:16:19.866Z,69.23
2024-02-18T12:19:22.387Z,71.28
2024-02-18T12:22:28.180Z,71.60
2024-02-18T12:25:37.008Z,72.68
2024-02-18T12:28:39.572Z,73.41
2024-02-18T12:31:44.593Z,72.98
2024-02-18T12:34:50.138Z,74.28
2024-02-18T12:37:52.558Z,71.71
2024-02-18T12:40:57.992Z,70.92
2024-02-18T12:44:40.626Z,70.03
2024-02-18T12:47:23.570Z,68.72
2024-02-18T12:50:29.204Z,68.93
2024-02-18T12:53:31.882Z,69.67
2024-02-18T12:56:34.197Z,68.64
2024-02-18T12:59:38.208Z,68.51
2024-02-18T13:02:41.801Z,67.68
2024-02-18T13:05:44.380Z,67.06
2024-02-18T13:08:46.747Z,67.90
2024-02-18T13:11:49.779Z,69.24
2024-02-18T13:14:52.476Z,68.85
2024-02-18T13:17:55.064Z,69.31
2024-02-18T13:20:57.377Z,69.05
2024-02-18T13:23:59.904Z,68.83
2024-02-18T13:27:02.351Z,69.93
2024-02-18T13:30:06.517Z,68.16
2024-02-18T13:33:09.039Z,68.47
2024-02-18T13:36:12.735Z,67.53
2024-02-18T13:39:18.589Z,65.97
2024-02-18T13:42:22.336Z,65.07
2024-02-18T13:45:25.567Z,64.81
2024-02-18T13:48:28.943Z,65.63
2024-02-18T13:51:34.092Z,66.75
2024-02-18T13:54:36.730Z,67.39
2024-02-18T13:57:39.064Z,66.15
2024-02-18T14:00:41.880Z,64.80
2024-02-18T14:03:45.800Z,64.93
2024-02-18T14:06:48.237Z,66.58
2024-02-18T14:09:50.879Z,67.89
2024-02-18T14:12:53.262Z,69.15
2024-02-18T14:15:56.958Z,68.89
2024-02-18T14:19:00.350Z,67.43
2024-02-18T14:22:03.091Z,68.58
2024-02-18T14:25:07.108Z,68.66
2024-02-18T14:28:12.749Z,69.10
2024-02-18T14:31:15.271Z,70.16
2024-02-18T14:34:18.124Z,69.06
2024-02-18T14:37:22.176Z,69.46
2024-02-18T14:40:25.554Z,68.20
2024-02-18T14:43:27.847Z,69.62
2024-02-18T14:46:30.418Z,71.55
2024-02-18T14:49:39.059Z,72.37
2024-02-18T14:52:47.402Z,71.67
2024-02-18T14:55:49.567Z,71.82
2024-02-18T14:58:52.189Z,73.72
2024-02-18T15:01:54.594Z,71.96
2024-02-18T15:04:57.318Z,72.11
2024-02-18T15:07:59.920Z,70.13
2024-02-18T15:11:02.510Z,71.12
2024-02-18T15:14:04.778Z,71.43
2024-02-18T15:17:10.549Z,70.35
2024-02-18T15:20:12.894Z,69.63
2024-02-18T15:23:15.637Z,70.81
2024-02-18T15:26:17.991Z,70.74
2024-02-18T15:29:20.615Z,71.38
2024-02-18T15:32:22.858Z,71.89
2024-02-18T15:35:25.431Z,72.48
2024-02-18T15:38:29.340Z,74.23
2024-02-18T15:41:31.958Z,74.28
2024-02-18T15:44:34.291Z,74.88
2024-02-18T15:47:36.734Z,75.49
2024-02-18T15:50:39.013Z,76.67
2024-02-18T15:53:42.238Z,76.88
2024-02-18T15:56:44.587Z,78.96
2024-02-18T15:59:47.327Z,79.27
2024-02-18T16:02:49.703Z,79.45
2024-02-18T16:05:52.504Z,79.29
2024-02-18T16:08:54.821Z,79.98
2024-02-18T16:11:57.440Z,80.40
2024-02-18T16:14:59.824Z,81.10
2024-02-18T16:18:02.526Z,81.15
2024-02-18T16:21:05.637Z,81.45
2024-02-18T16:24:08.256Z,81.50
2024-02-18T16:27:10.462Z,82.86
2024-02-18T16:30:16.879Z,83.44
2024-02-18T16:33:19.169Z,82.15
2024-02-18T16:36:22.166Z,83.12
2024-02-18T16:39:24.522Z,82.81
2024-02-18T16:42:29.644Z,83.67
2024-02-18T16:45:32.000Z,84.75
2024-02-18T16:48:37.295Z,85.58
2024-02-18T16:51:45.239Z,86.10
2024-02-18T16:54:48.646Z,87.02
2024-02-18T16:57:50.839Z,87.62
2024-02-18T17:00:53.804Z,88.41
2024-02-18T17:03:56.373Z,88.36
2024-02-18T17:06:59.247Z,89.52
2024-02-18T17:10:01.744Z,89.32
2024-02-18T17:13:07.557Z,88.91
2024-02-18T17:16:09.917Z,89.25
2024-02-18T17:19:12.608Z,89.35
2024-02-18T17:22:17.147Z,89.85
2024-02-18T17:25:19.873Z,89.18
2024-02-18T17:28:22.268Z,89.44
2024-02-18T17:31:26.621Z,89.71
2024-02-18T17:34:29.031Z,89.84
2024-02-18T17:37:32.492Z,90.99
2024-02-18T17:40:35.266Z,91.57
2024-02-18T17:43:37.921Z,92.29
2024-02-18T17:46:40.273Z,92.28
2024-02-18T17:49:42.925Z,92.90
2024-02-18T17:52:45.240Z,92.55
2024-02-18T17:55:48.894Z,93.78
2024-02-18T17:58:51.280Z,94.06
2024-02-18T18:01:54.336Z,94.64
2024-02-18T18:04:57.196Z,93.10
2024-02-18T18:07:59.446Z,93.34
2024-02-18T18:11:03.914Z,93.20
2024-02-18T18:14:06.935Z,93.75
2024-02-18T18:17:09.660Z,92.11
2024-02-18T18:20:12.299Z,91.64
2024-02-18T18:23:14.800Z,89.93
2024-02-18T18:26:17.070Z,90.82
2024-02-18T18:29:19.735Z,90.66
2024-02-18T18:32:22.033Z,90.37
2024-02-18T18:35:24.784Z,90.96
2024-02-18T18:38:29.097Z,91.70
2024-02-18T18:41:35.381Z,92.13
2024-02-18T18:44:39.546Z,92.37
2024-02-18T18:47:42.285Z,93.13
2024-02-18T18:50:45.698Z,94.08
2024-02-18T18:53:48.192Z,94.65
2024-02-18T18:56:50.397Z,94.33
2024-02-18T18:59:52.957Z,94.21
2024-02-18T19:02:56.202Z,94.89
2024-02-18T19:05:58.890Z,95.56
2024-02-18T19:09:04.164Z,97.43
2024-02-18T19:12:08.143Z,96.02
2024-02-18T19:15:11.417Z,98.08
2024-02-18T19:18:14.018Z,98.37
2024-02-18T19:21:17.350Z,99.31
2024-02-18T19:24:19.960Z,99.01
2024-02-18T19:27:25.523Z,98.76
2024-02-18T19:30:28.142Z,99.27
2024-02-18T19:33:30.535Z,100.00
2024-02-18T19:36:34.463Z,99.23
2024-02-18T19:39:36.818Z,99.23
2024-02-18T19:42:39.410Z,100.00
2024-02-18T19:45:41.727Z,99.43
2024-02-18T19:48:44.514Z,99.58
2024-02-18T19:51:47.859Z,98.85
2024-02-18T19:54:50.584Z,98.40
2024-02-18T19:57:52.864Z,97.44
2024-02-18T20:00:56.985Z,97.82
2024-02-18T20:03:59.684Z,98.53
2024-02-18T20:07:02.393Z,99.52
2024-02-18T20:10:05.359Z,99.52
2024-02-18T20:13:07.660Z,99.81
2024-02-18T20:16:10.738Z,99.76
2024-02-18T20:19:15.787Z,99.36
2024-02-18T20:22:19.058Z,99.71
2024-02-18T20:25:22.147Z,100.00
2024-02-18T20:28:24.819Z,100.00
2024-02-18T20:31:27.085Z,100.00
2024-02-18T20:34:29.997Z,100.00
2024-02-18T20:37:32.320Z,100.00
2024-02-18T20:40:34.841Z,100.00
2024-02-18T20:43:37.415Z,99.98
2024-02-18T20:46:39.983Z,100.00
2024-02-18T20:49:42.315Z,100.00
2024-02-18T20:52:44.884Z,100.00
2024-02-18T20:55:47.417Z,100.00
2024-02-18T20:58:50.014Z,100.00
2024-02-18T21:01:52.788Z,100.00
2024-02-18T21:04:55.666Z,100.00
2024-02-18T21:08:00.008Z,100.00
2024-02-18T21:11:03.301Z,100.00
2024-02-18T21:14:05.647Z,100.00
2024-02-18T21:17:08.223Z,100.00
2024-02-18T21:20:11.607Z,100.00
2024-02-18T21:23:14.172Z,100.00
2024-02-18T21:26:22.930Z,100.00
2024-02-18T21:29:25.574Z,100.00
2024-02-18T21:32:27.816Z,100.00
2024-02-18T21:35:30.449Z,100.00
2024-02-18T21:38:32.697Z,100.00
2024-02-18T21:41:35.234Z,100.00
2024-02-18T21:44:37.503Z,100.00
2024-02-18T21:47:40.116Z,100.00
2024-02-18T21:50:42.364Z,100.00
2024-02-18T21:53:45.754Z,100.00
2024-02-18T21:56:47.953Z,100.00
2024-02-18T21:59:50.633Z,100.00
2024-02-18T22:02:52.811Z,100.00
2024-02-18T22:05:55.363Z,100.00
2024-02-18T22:08:57.728Z,100.00
2024-02-18T22:12:00.187Z,100.00
2024-02-18T22:15:02.931Z,100.00
2024-02-18T22:18:06.420Z,100.00
2024-02-18T22:21:08.715Z,100.00
2024-02-18T22:24:11.253Z,100.00
2024-02-18T22:27:13.635Z,100.00
2024-02-18T22:30:17.199Z,100.00
2024-02-18T22:33:19.634Z,100.00
2024-02-18T22:36:22.297Z,100.00
2024-02-18T22:39:24.583Z,100.00
2024-02-18T22:42:27.144Z,100.00
2024-02-18T22:45:30.530Z,100.00
2024-02-18T22:48:33.610Z,100.00
2024-02-18T22:51:36.367Z,100.00
2024-02-18T22:54:38.974Z,100.00
2024-02-18T22:57:41.413Z,100.00
2024-02-18T23:00:44.661Z,100.00
2024-02-18T23:03:47.090Z,100.00
2024-02-18T23:06:49.694Z,100.00
2024-02-18T23:09:52.146Z,100.00
2024-02-18T23:12:54.775Z,100.00
2024-02-18T23:15:57.251Z,100.00
2024-02-18T23:19:00.774Z,100.00
2024-02-18T23:22:03.140Z,100.00
2024-02-18T23:25:06.089Z,100.00
2024-02-18T23:28:08.656Z,100.00
2024-02-18T23:31:11.232Z,100.00
2024-02-18T23:34:13.654Z,100.00
2024-02-18T23:37:16.435Z,100.00
2024-02-18T23:40:19.098Z,100.00
2024-02-18T23:43:22.194Z,100.00
2024-02-18T23:46:24.519Z,100.00
2024-02-18T23:49:27.550Z,100.00
2024-02-18T23:52:29.751Z,100.00
2024-02-18T23:55:32.201Z,100.00
2024-02-18T23:58:34.629Z,100.00
